createdAt,value
2023-03-16T00:00:43.927Z,20.60
2023-03-16T00:03:11.496Z,24.93
2023-03-16T00:05:38.899Z,19.10
2023-03-16T00:08:06.103Z,20.10
2023-03-16T00:10:33.319Z,25.60
2023-03-16T00:13:02.694Z,17.67
2023-03-16T00:15:30.154Z,18.70
2023-03-16T00:17:57.329Z,22.57
2023-03-16T00:20:24.549Z,23.67
2023-03-16T00:22:51.730Z,28.73
2023-03-16T00:25:19.683Z,29.97
2023-03-16T00:27:47.383Z,28.20
2023-03-16T00:30:14.596Z,33.17
2023-03-16T00:32:41.920Z,33.07
2023-03-16T00:35:09.723Z,30.27
2023-03-16T00:37:37.663Z,31.60
2023-03-16T00:40:07.812Z,28.60
2023-03-16T00:42:34.963Z,28.37
2023-03-16T00:45:02.210Z,33.60
2023-03-16T00:47:32.846Z,36.10
2023-03-16T00:50:01.025Z,29.27
2023-03-16T00:52:28.478Z,34.77
2023-03-16T00:54:55.917Z,32.97
2023-03-16T00:57:24.704Z,33.77
2023-03-16T00:59:52.560Z,34.33
2023-03-16T01:02:23.468Z,39.10
2023-03-16T01:04:51.755Z,37.90
2023-03-16T01:07:18.998Z,29.73
2023-03-16T01:09:46.398Z,31.60
2023-03-16T01:12:14.718Z,33.03
2023-03-16T01:14:42.028Z,35.97
2023-03-16T01:17:09.777Z,32.47
2023-03-16T01:19:37.406Z,23.43
2023-03-16T01:22:05.062Z,32.20
2023-03-16T01:24:32.258Z,26.83
2023-03-16T01:26:59.412Z,23.93
2023-03-16T01:29:26.604Z,23.63
2023-03-16T01:31:54.526Z,26.50
2023-03-16T01:34:21.662Z,27.43
2023-03-16T01:36:49.149Z,28.93
2023-03-16T01:39:16.436Z,27.63
2023-03-16T01:41:43.682Z,29.73
2023-03-16T01:44:17.817Z,23.53
2023-03-16T01:46:45.035Z,25.70
2023-03-16T01:49:48.173Z,28.00
2023-03-16T01:52:19.989Z,27.07
2023-03-16T01:54:51.436Z,23.80
2023-03-16T01:57:18.579Z,26.93
2023-03-16T01:59:48.197Z,21.60
2023-03-16T02:02:15.640Z,24.57
2023-03-16T02:04:44.353Z,18.90
2023-03-16T02:07:11.779Z,29.50
2023-03-16T02:09:40.308Z,29.23
2023-03-16T02:12:07.603Z,23.30
2023-03-16T02:14:34.744Z,28.07
2023-03-16T02:17:01.905Z,28.37
2023-03-16T02:19:42.566Z,28.53
2023-03-16T02:22:09.772Z,21.07
2023-03-16T02:24:37.819Z,19.87
2023-03-16T02:27:09.087Z,24.20
2023-03-16T02:29:42.498Z,22.77
2023-03-16T02:32:09.641Z,19.87
2023-03-16T02:34:36.771Z,19.33
2023-03-16T02:37:03.972Z,14.17
2023-03-16T02:39:31.111Z,27.17
2023-03-16T02:41:58.359Z,13.00
2023-03-16T02:44:29.248Z,15.80
2023-03-16T02:46:56.910Z,12.20
2023-03-16T02:49:25.002Z,16.53
2023-03-16T02:51:52.284Z,11.67
2023-03-16T02:54:19.519Z,11.87
2023-03-16T02:56:46.636Z,13.43
2023-03-16T02:59:13.874Z,10.70
2023-03-16T03:01:41.035Z,15.47
2023-03-16T03:04:08.232Z,13.30
2023-03-16T03:06:35.506Z,14.77
2023-03-16T03:09:02.704Z,9.00
2023-03-16T03:11:29.865Z,10.77
2023-03-16T03:13:57.117Z,11.73
2023-03-16T03:16:24.493Z,10.40
2023-03-16T03:18:52.762Z,12.43
2023-03-16T03:21:20.000Z,13.17
2023-03-16T03:23:47.209Z,14.07
2023-03-16T03:26:16.100Z,13.57
2023-03-16T03:28:43.501Z,18.37
2023-03-16T03:31:14.871Z,29.17
2023-03-16T03:33:42.022Z,17.17
2023-03-16T03:36:09.244Z,26.53
2023-03-16T03:38:36.388Z,25.80
2023-03-16T03:41:04.006Z,22.47
2023-03-16T03:43:31.357Z,17.63
2023-03-16T03:45:59.053Z,15.57
2023-03-16T03:48:26.270Z,22.40
2023-03-16T03:50:53.677Z,24.27
2023-03-16T03:53:20.886Z,32.80
2023-03-16T03:55:49.878Z,26.13
2023-03-16T03:58:17.085Z,24.93
2023-03-16T04:00:44.788Z,26.13
2023-03-16T04:03:12.156Z,28.57
2023-03-16T04:05:39.495Z,24.07
2023-03-16T04:08:06.719Z,23.43
2023-03-16T04:10:33.873Z,31.40
2023-03-16T04:13:01.178Z,21.17
2023-03-16T04:15:28.339Z,16.40
2023-03-16T04:17:55.489Z,17.17
2023-03-16T04:20:23.607Z,29.07
2023-03-16T04:22:58.305Z,33.20
2023-03-16T04:25:26.683Z,39.20
2023-03-16T04:27:53.869Z,52.57
2023-03-16T04:30:21.097Z,34.63
2023-03-16T04:32:48.338Z,29.17
2023-03-16T04:35:15.678Z,40.27
2023-03-16T04:37:42.797Z,34.30
2023-03-16T04:40:16.684Z,32.80
2023-03-16T04:42:47.075Z,39.30
2023-03-16T04:45:14.262Z,33.67
2023-03-16T04:47:41.517Z,32.63
2023-03-16T04:50:08.956Z,20.30
2023-03-16T04:52:36.092Z,31.30
2023-03-16T04:55:03.314Z,20.53
2023-03-16T04:57:30.574Z,25.77
2023-03-16T04:59:57.720Z,22.23
2023-03-16T05:02:24.886Z,31.97
2023-03-16T05:04:52.033Z,32.77
2023-03-16T05:07:19.299Z,29.97
2023-03-16T05:09:46.554Z,40.40
2023-03-16T05:12:13.697Z,36.90
2023-03-16T05:14:41.123Z,39.70
2023-03-16T05:17:08.310Z,40.70
2023-03-16T05:19:35.564Z,60.40
2023-03-16T05:22:02.705Z,65.40
2023-03-16T05:24:29.944Z,54.30
2023-03-16T05:26:57.587Z,55.17
2023-03-16T05:29:26.115Z,50.90
2023-03-16T05:31:54.134Z,49.93
2023-03-16T05:34:21.273Z,54.10
2023-03-16T05:36:48.483Z,45.83
2023-03-16T05:39:15.751Z,46.47
2023-03-16T05:41:43.775Z,54.27
2023-03-16T05:44:10.942Z,54.23
2023-03-16T05:46:38.193Z,68.53
2023-03-16T05:49:05.353Z,77.23
2023-03-16T05:51:32.544Z,66.83
2023-03-16T05:53:59.717Z,81.13
2023-03-16T05:56:27.232Z,75.57
2023-03-16T05:58:54.719Z,72.13
2023-03-16T06:01:22.028Z,82.27
2023-03-16T06:03:49.516Z,76.80
2023-03-16T06:06:17.162Z,82.23
2023-03-16T06:08:44.376Z,74.97
2023-03-16T06:11:11.815Z,64.90
2023-03-16T06:13:39.271Z,74.10
2023-03-16T06:16:06.653Z,75.43
2023-03-16T06:18:34.408Z,90.17
2023-03-16T06:21:01.533Z,88.47
2023-03-16T06:23:28.697Z,76.57
2023-03-16T06:25:55.892Z,83.93
2023-03-16T06:28:23.288Z,86.50
2023-03-16T06:30:50.775Z,70.97
2023-03-16T06:33:17.946Z,63.17
2023-03-16T06:35:45.128Z,59.73
2023-03-16T06:38:12.296Z,45.50
2023-03-16T06:40:39.530Z,49.50
2023-03-16T06:43:06.664Z,48.83
2023-03-16T06:45:33.882Z,54.73
2023-03-16T06:48:01.100Z,47.97
2023-03-16T06:50:28.632Z,51.77
2023-03-16T06:52:56.029Z,32.57
2023-03-16T06:55:23.169Z,32.07
2023-03-16T06:57:50.320Z,26.67
2023-03-16T07:00:17.794Z,30.23
2023-03-16T07:02:45.035Z,28.87
2023-03-16T07:05:13.541Z,24.70
2023-03-16T07:07:42.637Z,29.80
2023-03-16T07:10:11.566Z,28.83
2023-03-16T07:12:38.756Z,21.23
2023-03-16T07:15:06.241Z,23.50
2023-03-16T07:17:33.390Z,17.93
2023-03-16T07:20:00.509Z,44.17
2023-03-16T07:22:27.710Z,28.10
2023-03-16T07:24:57.465Z,24.17
2023-03-16T07:27:25.046Z,25.53
2023-03-16T07:29:52.371Z,18.13
2023-03-16T07:32:19.696Z,22.17
2023-03-16T07:34:46.835Z,21.07
2023-03-16T07:37:14.049Z,22.50
2023-03-16T07:39:41.990Z,16.57
2023-03-16T07:42:09.167Z,17.87
2023-03-16T07:44:36.346Z,12.57
2023-03-16T07:47:03.450Z,16.03
2023-03-16T07:49:30.588Z,12.30
2023-03-16T07:51:57.781Z,11.27
2023-03-16T07:54:25.293Z,15.47
2023-03-16T07:56:52.463Z,13.73
2023-03-16T07:59:21.122Z,11.47
2023-03-16T08:01:48.910Z,10.97
2023-03-16T08:04:16.072Z,12.87
2023-03-16T08:06:43.354Z,13.60
2023-03-16T08:09:10.516Z,12.17
2023-03-16T08:11:37.663Z,10.97
2023-03-16T08:14:05.534Z,11.57
2023-03-16T08:16:32.733Z,10.67
2023-03-16T08:19:01.269Z,11.27
2023-03-16T08:21:28.490Z,15.27
2023-03-16T08:23:55.605Z,8.97
2023-03-16T08:26:22.937Z,8.30
2023-03-16T08:28:52.028Z,9.80
2023-03-16T08:31:19.591Z,7.72
2023-03-16T08:33:47.322Z,5.33
2023-03-16T08:36:15.540Z,8.70
2023-03-16T08:38:45.345Z,9.47
2023-03-16T08:41:17.327Z,8.63
2023-03-16T08:43:44.755Z,10.33
2023-03-16T08:46:13.310Z,9.83
2023-03-16T08:48:41.760Z,9.23
2023-03-16T08:51:11.707Z,7.80
2023-03-16T08:53:39.240Z,6.40
2023-03-16T08:56:07.113Z,8.07
2023-03-16T08:58:34.335Z,7.50
2023-03-16T09:01:01.863Z,10.67
2023-03-16T09:03:29.067Z,15.80
2023-03-16T09:06:01.572Z,14.43
2023-03-16T09:08:29.345Z,13.53
2023-03-16T09:11:12.680Z,13.43
2023-03-16T09:13:40.324Z,6.53
2023-03-16T09:16:10.271Z,11.47
2023-03-16T09:18:37.485Z,16.70
2023-03-16T09:21:05.488Z,11.53
2023-03-16T09:23:32.701Z,6.13
2023-03-16T09:26:00.570Z,5.13
2023-03-16T09:28:28.464Z,6.80
2023-03-16T09:30:56.563Z,4.23
2023-03-16T09:33:24.470Z,6.47
2023-03-16T09:35:52.166Z,8.27
2023-03-16T09:38:19.672Z,5.22
2023-03-16T09:40:48.106Z,8.70
2023-03-16T09:43:28.113Z,4.63
2023-03-16T09:46:01.363Z,7.88
2023-03-16T09:48:29.304Z,9.23
2023-03-16T09:50:56.610Z,9.45
2023-03-16T09:53:24.818Z,4.90
2023-03-16T09:55:53.708Z,4.83
2023-03-16T09:58:21.287Z,6.50
2023-03-16T10:00:54.988Z,6.53
2023-03-16T10:03:43.802Z,3.97
2023-03-16T10:06:12.415Z,4.32
2023-03-16T10:08:40.820Z,7.70
2023-03-16T10:11:32.023Z,8.03
2023-03-16T10:14:02.570Z,5.88
2023-03-16T10:16:39.679Z,6.70
2023-03-16T10:19:19.623Z,6.47
2023-03-16T10:21:46.827Z,6.15
2023-03-16T10:24:16.663Z,5.95
2023-03-16T10:26:45.223Z,6.93
2023-03-16T10:29:12.945Z,8.27
2023-03-16T10:31:41.327Z,10.23
2023-03-16T10:34:08.639Z,10.50
2023-03-16T10:36:36.573Z,7.65
2023-03-16T10:39:03.918Z,7.20
2023-03-16T10:41:32.615Z,6.70
2023-03-16T10:44:08.532Z,8.82
2023-03-16T10:46:39.415Z,9.02
2023-03-16T10:49:07.001Z,10.75
2023-03-16T10:51:34.869Z,6.85
2023-03-16T10:54:22.275Z,6.03
2023-03-16T10:56:50.643Z,7.78
2023-03-16T10:59:33.323Z,19.38
2023-03-16T11:02:05.448Z,6.72
2023-03-16T11:04:33.350Z,4.85
2023-03-16T11:07:00.525Z,4.50
2023-03-16T11:09:32.976Z,6.13
2023-03-16T11:12:00.689Z,7.65
2023-03-16T11:14:31.326Z,9.45
2023-03-16T11:17:09.412Z,4.25
2023-03-16T11:19:48.511Z,5.50
2023-03-16T11:22:20.467Z,6.40
2023-03-16T11:24:56.732Z,7.38
2023-03-16T11:27:23.960Z,4.63
2023-03-16T11:29:51.249Z,4.40
2023-03-16T11:32:21.680Z,4.78
2023-03-16T11:34:49.020Z,5.28
2023-03-16T11:37:22.235Z,8.55
2023-03-16T11:39:53.612Z,7.70
2023-03-16T11:42:56.259Z,6.25
2023-03-16T11:45:29.848Z,5.50
2023-03-16T11:48:16.186Z,5.32
2023-03-16T11:51:03.902Z,4.72
2023-03-16T11:53:41.563Z,6.55
2023-03-16T11:56:27.572Z,5.15
2023-03-16T11:59:13.516Z,4.32
2023-03-16T12:02:00.062Z,7.47
2023-03-16T12:05:07.680Z,6.80
2023-03-16T12:07:44.652Z,6.78
2023-03-16T12:10:26.547Z,5.63
2023-03-16T12:12:56.791Z,5.68
2023-03-16T12:15:25.403Z,7.88
2023-03-16T12:17:53.958Z,6.18
2023-03-16T12:20:23.634Z,7.63
2023-03-16T12:22:51.845Z,5.82
2023-03-16T12:25:24.702Z,6.00
2023-03-16T12:27:53.916Z,6.97
2023-03-16T12:30:21.031Z,4.65
2023-03-16T12:33:14.981Z,7.28
2023-03-16T12:35:58.652Z,7.93
2023-03-16T12:38:31.982Z,9.05
2023-03-16T12:41:17.729Z,9.65
2023-03-16T12:43:47.944Z,7.78
2023-03-16T12:46:18.589Z,8.70
2023-03-16T12:48:47.185Z,8.63
2023-03-16T12:51:14.363Z,6.82
2023-03-16T12:53:44.565Z,7.45
2023-03-16T12:56:16.416Z,6.93
2023-03-16T12:58:45.398Z,6.28
2023-03-16T13:01:12.835Z,9.30
2023-03-16T13:03:40.153Z,6.63
2023-03-16T13:06:09.565Z,4.10
2023-03-16T13:08:44.060Z,7.15
2023-03-16T13:11:11.551Z,4.18
2023-03-16T13:13:57.557Z,4.80
2023-03-16T13:16:31.970Z,4.43
2023-03-16T13:18:59.233Z,11.30
2023-03-16T13:21:35.227Z,6.63
2023-03-16T13:24:14.810Z,6.18
2023-03-16T13:26:52.164Z,6.07
2023-03-16T13:29:23.912Z,7.18
2023-03-16T13:31:51.556Z,7.80
2023-03-16T13:34:20.781Z,8.73
2023-03-16T13:36:48.038Z,5.38
2023-03-16T13:39:27.285Z,6.80
2023-03-16T13:41:57.615Z,6.65
2023-03-16T13:44:25.229Z,6.10
2023-03-16T13:46:52.377Z,9.10
2023-03-16T13:49:19.915Z,14.30
2023-03-16T13:51:47.304Z,7.43
2023-03-16T13:54:23.718Z,9.03
2023-03-16T13:56:52.209Z,6.90
2023-03-16T13:59:20.062Z,6.10
2023-03-16T14:01:48.574Z,7.07
2023-03-16T14:04:18.809Z,9.75
2023-03-16T14:06:56.110Z,6.15
2023-03-16T14:09:26.038Z,6.45
2023-03-16T14:11:53.223Z,5.35
2023-03-16T14:14:26.465Z,5.88
2023-03-16T14:16:54.728Z,9.25
2023-03-16T14:19:28.173Z,4.63
2023-03-16T14:21:55.725Z,5.50
2023-03-16T14:24:23.022Z,5.72
2023-03-16T14:26:50.345Z,9.73
2023-03-16T14:29:17.531Z,7.13
2023-03-16T14:31:44.830Z,4.55
2023-03-16T14:34:30.777Z,4.13
2023-03-16T14:37:11.336Z,7.38
2023-03-16T14:39:40.476Z,6.85
2023-03-16T14:42:20.462Z,11.40
2023-03-16T14:44:49.671Z,9.02
2023-03-16T14:47:23.554Z,5.63
2023-03-16T14:49:51.014Z,7.53
2023-03-16T14:52:29.747Z,9.40
2023-03-16T14:54:56.934Z,7.38
2023-03-16T14:57:24.506Z,10.18
2023-03-16T14:59:51.692Z,121.82
2023-03-16T15:02:21.250Z,42.63
2023-03-16T15:04:48.732Z,16.88
2023-03-16T15:07:29.650Z,25.92
2023-03-16T15:10:17.130Z,45.40
2023-03-16T15:12:50.533Z,28.63
2023-03-16T15:15:18.906Z,23.47
2023-03-16T15:17:46.411Z,15.75
2023-03-16T15:20:14.386Z,25.93
2023-03-16T15:22:41.747Z,11.18
2023-03-16T15:25:09.132Z,10.40
2023-03-16T15:27:36.574Z,15.43
2023-03-16T15:30:03.808Z,15.13
2023-03-16T15:32:31.006Z,10.73
2023-03-16T15:34:58.485Z,5.93
2023-03-16T15:37:27.731Z,7.63
2023-03-16T15:39:55.024Z,5.20
2023-03-16T15:42:22.740Z,5.73
2023-03-16T15:44:49.870Z,5.40
2023-03-16T15:47:17.034Z,7.40
2023-03-16T15:49:48.233Z,8.10
2023-03-16T15:52:21.764Z,4.87
2023-03-16T15:54:48.982Z,8.82
2023-03-16T15:57:16.148Z,4.60
2023-03-16T15:59:43.345Z,7.03
2023-03-16T16:02:22.176Z,12.57
2023-03-16T16:04:49.383Z,7.10
2023-03-16T16:07:16.593Z,14.97
2023-03-16T16:09:43.747Z,8.10
2023-03-16T16:12:13.770Z,8.27
2023-03-16T16:14:41.437Z,7.57
2023-03-16T16:17:36.604Z,10.80
2023-03-16T16:20:41.056Z,11.90
2023-03-16T16:23:10.442Z,13.20
2023-03-16T16:25:39.162Z,14.67
2023-03-16T16:28:12.898Z,10.87
2023-03-16T16:30:40.066Z,16.47
2023-03-16T16:33:26.281Z,20.80
2023-03-16T16:35:54.283Z,27.87
2023-03-16T16:38:21.987Z,39.90
2023-03-16T16:40:49.187Z,49.23
2023-03-16T16:43:22.343Z,54.50
2023-03-16T16:45:49.818Z,61.20
2023-03-16T16:48:23.351Z,66.63
2023-03-16T16:50:51.655Z,66.00
2023-03-16T16:53:21.749Z,66.57
2023-03-16T16:55:48.932Z,69.50
2023-03-16T16:58:24.125Z,61.40
2023-03-16T17:00:58.916Z,68.27
2023-03-16T17:03:29.723Z,71.30
2023-03-16T17:05:57.897Z,61.60
2023-03-16T17:08:25.495Z,62.13
2023-03-16T17:10:53.391Z,58.43
2023-03-16T17:13:23.369Z,76.37
2023-03-16T17:15:50.573Z,82.87
2023-03-16T17:18:17.821Z,94.10
2023-03-16T17:20:44.961Z,77.23
2023-03-16T17:23:29.367Z,72.03
2023-03-16T17:25:57.076Z,65.93
2023-03-16T17:28:25.959Z,52.80
2023-03-16T17:30:53.254Z,75.70
2023-03-16T17:33:21.105Z,99.80
2023-03-16T17:35:48.769Z,93.23
2023-03-16T17:38:17.682Z,93.27
2023-03-16T17:40:44.969Z,90.83
2023-03-16T17:43:13.919Z,96.13
2023-03-16T17:45:41.382Z,106.80
2023-03-16T17:48:21.803Z,106.10
2023-03-16T17:50:49.133Z,100.80
2023-03-16T17:53:16.886Z,103.13
2023-03-16T17:55:44.228Z,107.07
2023-03-16T17:58:18.141Z,120.10
2023-03-16T18:00:47.079Z,118.63
2023-03-16T18:03:14.921Z,98.47
2023-03-16T18:05:42.801Z,106.60
2023-03-16T18:08:16.988Z,104.17
2023-03-16T18:10:44.846Z,102.47
2023-03-16T18:13:38.588Z,100.77
2023-03-16T18:16:06.178Z,101.47
2023-03-16T18:18:35.104Z,152.87
2023-03-16T18:21:02.431Z,91.43
2023-03-16T18:23:30.779Z,102.83
2023-03-16T18:26:03.343Z,96.97
2023-03-16T18:28:31.381Z,112.83
2023-03-16T18:30:59.362Z,115.40
2023-03-16T18:33:33.700Z,97.23
2023-03-16T18:36:01.732Z,85.73
2023-03-16T18:38:35.982Z,90.20
2023-03-16T18:41:04.599Z,94.00
2023-03-16T18:43:31.871Z,78.63
2023-03-16T18:45:59.069Z,63.27
2023-03-16T18:48:33.817Z,61.33
2023-03-16T18:51:01.138Z,81.90
2023-03-16T18:53:29.059Z,73.27
2023-03-16T18:55:57.549Z,70.57
2023-03-16T18:58:25.383Z,58.13
2023-03-16T19:00:56.638Z,87.30
2023-03-16T19:03:27.820Z,107.90
2023-03-16T19:05:56.103Z,117.73
2023-03-16T19:08:23.449Z,67.03
2023-03-16T19:11:00.329Z,88.47
2023-03-16T19:13:27.928Z,91.10
2023-03-16T19:15:57.082Z,95.60
2023-03-16T19:18:26.133Z,79.47
2023-03-16T19:20:53.477Z,56.27
2023-03-16T19:23:23.553Z,52.70
2023-03-16T19:25:51.832Z,61.33
2023-03-16T19:28:39.547Z,59.77
2023-03-16T19:31:12.661Z,98.30
2023-03-16T19:33:39.823Z,135.10
2023-03-16T19:36:07.468Z,128.37
2023-03-16T19:38:34.831Z,102.13
2023-03-16T19:41:02.013Z,102.63
2023-03-16T19:43:29.198Z,119.03
2023-03-16T19:45:56.699Z,104.50
2023-03-16T19:48:29.120Z,100.27
2023-03-16T19:50:56.473Z,82.30
2023-03-16T19:53:23.627Z,91.63
2023-03-16T19:55:51.820Z,90.27
2023-03-16T19:58:21.342Z,99.70
2023-03-16T20:00:49.025Z,85.60
2023-03-16T20:03:16.556Z,101.83
2023-03-16T20:05:43.740Z,69.43
2023-03-16T20:08:26.930Z,78.60
2023-03-16T20:10:58.456Z,85.57
2023-03-16T20:13:25.640Z,91.13
2023-03-16T20:15:53.318Z,99.47
2023-03-16T20:18:20.501Z,75.63
2023-03-16T20:20:47.649Z,74.87
2023-03-16T20:23:17.529Z,80.53
2023-03-16T20:25:44.705Z,73.47
2023-03-16T20:28:15.034Z,88.83
2023-03-16T20:30:42.283Z,98.60
2023-03-16T20:33:12.259Z,100.23
2023-03-16T20:35:39.439Z,81.00
2023-03-16T20:38:09.982Z,84.07
2023-03-16T20:40:37.162Z,113.80
2023-03-16T20:43:04.319Z,148.87
2023-03-16T20:45:31.818Z,154.57
2023-03-16T20:47:59.204Z,141.70
2023-03-16T20:50:27.322Z,143.87
2023-03-16T20:52:54.720Z,152.60
2023-03-16T20:55:25.414Z,151.60
2023-03-16T20:57:52.777Z,156.67
2023-03-16T21:00:45.657Z,138.23
2023-03-16T21:03:17.505Z,129.47
2023-03-16T21:05:45.061Z,118.10
2023-03-16T21:08:12.762Z,124.20
2023-03-16T21:10:39.902Z,129.57
2023-03-16T21:13:07.309Z,135.70
2023-03-16T21:15:34.512Z,176.50
2023-03-16T21:18:02.403Z,142.77
2023-03-16T21:20:30.676Z,137.87
2023-03-16T21:22:57.960Z,137.67
2023-03-16T21:25:32.666Z,144.97
2023-03-16T21:28:00.404Z,147.13
2023-03-16T21:30:27.541Z,127.93
2023-03-16T21:32:55.468Z,121.53
2023-03-16T21:35:24.209Z,134.97
2023-03-16T21:37:52.817Z,137.80
2023-03-16T21:40:20.934Z,130.93
2023-03-16T21:42:48.117Z,120.83
2023-03-16T21:45:15.910Z,110.37
2023-03-16T21:47:43.172Z,131.63
2023-03-16T21:50:13.980Z,129.73
2023-03-16T21:52:42.615Z,138.57
2023-03-16T21:55:23.045Z,133.90
2023-03-16T21:57:51.058Z,135.07
2023-03-16T22:00:19.334Z,125.90
2023-03-16T22:02:47.685Z,130.20
2023-03-16T22:05:21.130Z,114.33
2023-03-16T22:07:48.235Z,112.00
2023-03-16T22:10:15.690Z,114.30
2023-03-16T22:12:43.126Z,106.53
2023-03-16T22:15:10.398Z,107.00
2023-03-16T22:17:37.660Z,107.53
2023-03-16T22:20:07.101Z,167.73
2023-03-16T22:22:34.199Z,126.33
2023-03-16T22:25:01.738Z,114.80
2023-03-16T22:27:30.117Z,101.50
2023-03-16T22:29:57.780Z,106.40
2023-03-16T22:32:25.007Z,97.87
2023-03-16T22:34:53.301Z,103.37
2023-03-16T22:37:21.337Z,108.40
2023-03-16T22:39:48.514Z,101.67
2023-03-16T22:42:18.467Z,106.83
2023-03-16T22:44:45.804Z,110.70
2023-03-16T22:47:22.533Z,90.63
2023-03-16T22:49:49.772Z,83.20
2023-03-16T22:52:17.214Z,93.27
2023-03-16T22:54:44.416Z,87.90
2023-03-16T22:57:14.652Z,74.33
2023-03-16T22:59:41.962Z,75.30
2023-03-16T23:02:11.617Z,71.97
2023-03-16T23:04:39.030Z,141.17
2023-03-16T23:07:07.031Z,105.50
2023-03-16T23:09:34.212Z,53.30
2023-03-16T23:12:03.200Z,57.10
2023-03-16T23:14:30.565Z,71.80
2023-03-16T23:16:57.858Z,92.27
2023-03-16T23:19:34.611Z,132.93
2023-03-16T23:22:03.472Z,122.07
2023-03-16T23:24:30.784Z,85.37
2023-03-16T23:26:57.893Z,90.83
2023-03-16T23:29:26.134Z,84.67
2023-03-16T23:31:53.658Z,88.97
2023-03-16T23:34:21.291Z,91.67
2023-03-16T23:36:48.466Z,79.27
2023-03-16T23:39:15.591Z,75.43
2023-03-16T23:41:43.203Z,78.67
2023-03-16T23:44:12.599Z,76.17
2023-03-16T23:46:39.691Z,56.23
2023-03-16T23:49:18.186Z,59.57
2023-03-16T23:51:45.989Z,66.13
2023-03-16T23:54:16.963Z,72.53
2023-03-16T23:56:44.117Z,78.90
2023-03-16T23:59:11.277Z,74.53
